Moree, Australia
Current Conditions -  °F | °C
As of 12:00 PM on Wednesday 22 Oct 2014 (Local Time) from YMOR Reporting Station
Clear Clear  
Wind Chill: 75°   Ceiling: Unl
Heat Index: 75°   Visibility: 6mi
Dew Point: 46°   Wind: 9mph
Humidity: 36%   Direction: 10°N
Pressure: 30.24"   Gusts: NA
Location:  29.46°S, 149.84°E
Report Text: YMOR 220100Z 01008KT CAVOK 24/08 Q1024
Loading
Personal Weather Stations






























Interactive Weather Map
Tropical Storm Tracking
New forecast layout! Learn more

10-Day Weather Forecast

Advertisements
Track Severe Weather on mobile